createdAt,value
2019-04-22T00:01:50.302Z,14.67
2019-04-22T00:04:30.264Z,14.95
2019-04-22T00:07:11.794Z,14.67
2019-04-22T00:09:41.830Z,14.61
2019-04-22T00:12:16.616Z,14.70
2019-04-22T00:14:28.411Z,14.61
2019-04-22T00:17:07.047Z,14.55
2019-04-22T00:19:36.051Z,14.45
2019-04-22T00:22:07.824Z,14.74
2019-04-22T00:24:32.103Z,14.52
2019-04-22T00:27:05.262Z,14.40
2019-04-22T00:32:11.357Z,14.25
2019-04-22T00:34:44.488Z,14.27
2019-04-22T00:37:17.575Z,14.24
2019-04-22T00:39:46.614Z,14.51
2019-04-22T00:42:18.110Z,14.24
2019-04-22T00:44:46.948Z,14.27
2019-04-22T00:47:17.969Z,14.20
2019-04-22T00:52:12.489Z,14.10
2019-04-22T00:54:41.689Z,14.04
2019-04-22T00:57:12.308Z,13.98
2019-04-22T00:59:37.504Z,13.91
2019-04-22T01:02:07.026Z,13.99
2019-04-22T01:07:09.266Z,13.95
2019-04-22T01:09:38.877Z,14.01
2019-04-22T01:12:01.937Z,14.02
2019-04-22T01:14:29.798Z,14.01
2019-04-22T01:17:01.477Z,13.94
2019-04-22T01:19:34.376Z,13.86
2019-04-22T01:22:06.432Z,13.85
2019-04-22T01:24:24.684Z,13.87
2019-04-22T01:26:50.793Z,13.80
2019-04-22T01:29:12.672Z,13.71
2019-04-22T01:31:33.069Z,13.53
2019-04-22T01:34:13.837Z,13.43
2019-04-22T01:36:51.619Z,13.44
2019-04-22T01:39:21.295Z,13.60
2019-04-22T01:41:56.677Z,13.36
2019-04-22T01:46:50.627Z,13.27
2019-04-22T01:49:25.202Z,13.20
2019-04-22T01:54:26.657Z,13.33
2019-04-22T01:56:47.085Z,13.23
2019-04-22T01:59:05.134Z,13.15
2019-04-22T02:01:46.472Z,13.10
2019-04-22T02:04:24.048Z,13.03
2019-04-22T02:06:46.262Z,13.01
2019-04-22T02:09:17.741Z,12.95
2019-04-22T02:11:45.499Z,12.85
2019-04-22T02:14:14.792Z,12.91
2019-04-22T02:19:11.947Z,12.94
2019-04-22T02:21:38.641Z,12.91
2019-04-22T02:24:02.171Z,12.84
2019-04-22T02:26:38.657Z,12.85
2019-04-22T02:29:01.927Z,12.77
2019-04-22T02:36:38.205Z,12.64
2019-04-22T02:44:13.687Z,12.58
2019-04-22T02:51:22.279Z,12.45
2019-04-22T03:01:39.661Z,12.25
2019-04-22T03:04:01.275Z,12.26
2019-04-22T03:06:30.405Z,12.23
2019-04-22T03:11:18.617Z,12.17
2019-04-22T03:16:28.835Z,12.10
2019-04-22T03:18:57.115Z,12.13
2019-04-22T03:21:10.696Z,12.09
2019-04-22T03:26:20.673Z,12.08
2019-04-22T03:28:47.795Z,12.03
2019-04-22T03:32:36.016Z,11.99
2019-04-22T03:54:39.964Z,12.03
2019-04-22T04:02:16.216Z,12.24
2019-04-22T04:04:31.741Z,12.20
2019-04-22T04:09:24.033Z,12.07
2019-04-22T04:12:01.868Z,12.03
2019-04-22T04:14:38.040Z,12.35
2019-04-22T04:19:31.491Z,12.13
2019-04-22T04:21:41.383Z,12.17
2019-04-22T04:27:06.733Z,12.11
2019-04-22T04:29:27.929Z,12.14
2019-04-22T04:31:40.930Z,12.12
2019-04-22T04:34:22.004Z,12.15
2019-04-22T04:36:42.546Z,12.15
2019-04-22T04:39:05.717Z,12.09
2019-04-22T04:41:42.156Z,12.04
2019-04-22T04:44:11.169Z,12.05
2019-04-22T04:46:47.379Z,12.38
2019-04-22T04:49:07.508Z,12.27
2019-04-22T04:51:46.902Z,12.30
2019-04-22T04:54:13.232Z,12.23
2019-04-22T04:56:38.591Z,12.11
2019-04-22T05:01:31.243Z,12.22
2019-04-22T05:06:36.890Z,12.50
2019-04-22T05:13:57.805Z,12.78
2019-04-22T05:18:54.041Z,12.53
2019-04-22T05:21:18.317Z,12.65
2019-04-22T05:23:43.906Z,12.69
2019-04-22T05:26:22.665Z,13.01
2019-04-22T05:28:44.825Z,12.87
2019-04-22T05:31:16.074Z,12.94
2019-04-22T05:33:42.215Z,12.99
2019-04-22T05:36:07.510Z,12.99
2019-04-22T05:38:44.324Z,13.02
2019-04-22T05:41:04.265Z,13.06
2019-04-22T05:43:36.599Z,13.19
2019-04-22T05:46:02.842Z,13.24
2019-04-22T05:48:38.058Z,13.43
2019-04-22T05:51:07.763Z,13.59
2019-04-22T05:53:35.604Z,14.05
2019-04-22T05:56:01.747Z,15.20
2019-04-22T05:58:31.263Z,16.27
2019-04-22T06:03:39.463Z,16.87
2019-04-22T06:06:11.992Z,16.69
2019-04-22T06:08:29.272Z,16.80
2019-04-22T06:11:09.646Z,17.27
2019-04-22T06:13:30.432Z,17.88
2019-04-22T06:15:57.161Z,18.04
2019-04-22T06:18:38.566Z,18.03
2019-04-22T06:21:07.125Z,18.31
2019-04-22T06:23:36.343Z,18.38
2019-04-22T06:26:14.767Z,18.87
2019-04-22T06:28:34.859Z,20.09
2019-04-22T06:30:57.528Z,20.33
2019-04-22T06:33:26.146Z,20.50
2019-04-22T06:35:58.916Z,20.62
2019-04-22T06:41:02.818Z,19.98
2019-04-22T06:43:35.529Z,19.96
2019-04-22T06:45:44.906Z,20.18
2019-04-22T06:48:19.465Z,20.08
2019-04-22T06:50:51.030Z,19.86
2019-04-22T06:53:17.013Z,19.81
2019-04-22T06:55:45.603Z,19.95
2019-04-22T06:58:15.312Z,20.16
2019-04-22T07:00:42.888Z,20.48
2019-04-22T07:03:30.401Z,21.28
2019-04-22T07:05:41.164Z,22.71
2019-04-22T07:08:34.601Z,24.70
2019-04-22T07:10:45.396Z,26.59
2019-04-22T07:13:10.720Z,27.25
2019-04-22T07:15:47.085Z,27.19
2019-04-22T07:18:12.871Z,27.09
2019-04-22T07:20:42.153Z,28.45
2019-04-22T07:23:10.620Z,29.35
2019-04-22T07:28:01.413Z,30.96
2019-04-22T07:33:14.762Z,29.63
2019-04-22T07:38:00.583Z,29.92
2019-04-22T07:40:27.077Z,30.11
2019-04-22T07:42:59.206Z,30.84
2019-04-22T07:45:28.155Z,31.44
2019-04-22T07:50:39.401Z,31.31
2019-04-22T07:52:47.039Z,31.64
2019-04-22T07:55:13.437Z,32.14
2019-04-22T07:58:04.977Z,32.29
2019-04-22T08:02:54.313Z,33.50
2019-04-22T08:05:12.786Z,33.25
2019-04-22T08:07:45.339Z,32.93
2019-04-22T08:10:23.905Z,33.25
2019-04-22T08:12:45.662Z,33.30
2019-04-22T08:15:13.088Z,34.06
2019-04-22T08:20:18.915Z,34.18
2019-04-22T08:22:42.876Z,34.27
2019-04-22T08:25:06.786Z,33.79
2019-04-22T08:27:35.677Z,33.63
2019-04-22T08:32:42.882Z,33.91
2019-04-22T08:35:11.249Z,34.63
2019-04-22T08:37:47.719Z,33.90
2019-04-22T08:40:07.728Z,33.75
2019-04-22T08:45:09.392Z,33.85
2019-04-22T08:47:31.163Z,33.66
2019-04-22T08:50:03.119Z,33.13
2019-04-22T08:52:27.561Z,33.78
2019-04-22T08:54:57.394Z,33.83
2019-04-22T08:57:43.360Z,34.70
2019-04-22T08:59:54.478Z,34.40
2019-04-22T09:02:26.037Z,34.26
2019-04-22T09:04:56.954Z,34.42
2019-04-22T09:09:50.700Z,34.13
2019-04-22T09:12:26.415Z,34.61
2019-04-22T09:14:45.298Z,34.88
2019-04-22T09:17:22.901Z,35.18
2019-04-22T09:19:51.672Z,35.09
2019-04-22T09:22:20.117Z,35.53
2019-04-22T09:24:47.044Z,35.91
2019-04-22T09:27:22.524Z,35.79
2019-04-22T09:29:43.223Z,35.65
2019-04-22T09:32:19.036Z,35.69
2019-04-22T09:34:39.862Z,36.18
2019-04-22T09:39:47.881Z,36.43
2019-04-22T09:42:24.660Z,36.29
2019-04-22T09:44:40.348Z,35.71
2019-04-22T09:47:07.672Z,36.14
2019-04-22T09:49:44.752Z,36.55
2019-04-22T09:52:08.438Z,36.14
2019-04-22T09:54:39.934Z,36.18
2019-04-22T09:57:01.519Z,35.75
2019-04-22T09:59:27.173Z,36.45
2019-04-22T10:02:13.558Z,36.69
2019-04-22T10:04:34.965Z,37.73
2019-04-22T10:06:54.016Z,38.20
2019-04-22T10:09:40.559Z,37.18
2019-04-22T10:11:56.325Z,36.47
2019-04-22T10:14:28.592Z,36.50
2019-04-22T10:16:54.033Z,37.64
2019-04-22T10:19:23.500Z,37.14
2019-04-22T10:22:05.657Z,36.80
2019-04-22T10:24:21.586Z,36.00
2019-04-22T10:27:04.516Z,35.80
2019-04-22T10:29:17.049Z,35.96
2019-04-22T10:31:52.760Z,36.45
2019-04-22T10:34:05.924Z,35.70
2019-04-22T10:36:19.616Z,36.11
2019-04-22T10:38:48.743Z,36.00
2019-04-22T10:41:18.540Z,36.33
2019-04-22T10:43:47.609Z,36.52
2019-04-22T10:46:15.857Z,36.68
2019-04-22T10:48:44.406Z,35.81
2019-04-22T10:51:14.686Z,36.44
2019-04-22T10:53:43.694Z,36.10
2019-04-22T10:56:12.610Z,36.08
2019-04-22T10:58:40.514Z,36.45
2019-04-22T11:01:09.621Z,36.33
2019-04-22T11:03:39.488Z,36.23
2019-04-22T11:06:07.459Z,35.92
2019-04-22T11:08:43.289Z,36.36
2019-04-22T11:11:18.880Z,36.70
2019-04-22T11:13:35.661Z,37.46
2019-04-22T11:16:03.575Z,36.56
2019-04-22T11:18:33.649Z,36.08
2019-04-22T11:21:01.905Z,35.40
2019-04-22T11:23:30.049Z,35.84
2019-04-22T11:25:59.660Z,35.79
2019-04-22T11:28:27.990Z,35.38
2019-04-22T11:30:56.717Z,35.18
2019-04-22T11:33:26.719Z,35.11
2019-04-22T11:35:55.596Z,35.35
2019-04-22T11:38:24.678Z,34.93
2019-04-22T11:40:55.495Z,35.47
2019-04-22T11:43:21.942Z,34.40
2019-04-22T11:45:51.195Z,33.67
2019-04-22T11:48:19.636Z,33.33
2019-04-22T11:50:48.177Z,32.74
2019-04-22T11:53:16.948Z,32.35
2019-04-22T11:55:46.785Z,31.87
2019-04-22T11:58:15.023Z,30.95
2019-04-22T12:00:45.019Z,30.71
2019-04-22T12:03:12.736Z,30.44
2019-04-22T12:05:41.757Z,30.54
2019-04-22T12:08:11.289Z,30.51
2019-04-22T12:10:48.592Z,30.39
2019-04-22T12:13:08.401Z,30.21
2019-04-22T12:15:37.426Z,29.82
2019-04-22T12:18:07.057Z,29.60
2019-04-22T12:20:39.128Z,29.64
2019-04-22T12:23:29.378Z,29.55
2019-04-22T12:26:05.912Z,29.61
2019-04-22T12:29:17.163Z,29.67
2019-04-22T12:31:57.890Z,29.59
2019-04-22T12:34:31.136Z,29.30
2019-04-22T12:37:42.987Z,29.17
2019-04-22T12:40:06.984Z,29.18
2019-04-22T12:45:56.109Z,29.20
2019-04-22T12:48:27.467Z,28.90
2019-04-22T12:53:32.118Z,28.77
2019-04-22T12:56:25.795Z,28.67
2019-04-22T12:58:49.845Z,28.77
2019-04-22T13:01:26.691Z,28.91
2019-04-22T13:04:17.579Z,28.96
2019-04-22T13:06:59.731Z,28.95
2019-04-22T13:09:25.285Z,29.29
2019-04-22T13:12:01.318Z,29.31
2019-04-22T13:15:22.100Z,29.24
2019-04-22T13:18:31.784Z,28.94
2019-04-22T13:21:06.463Z,28.78
2019-04-22T13:23:57.102Z,28.65
2019-04-22T13:26:27.194Z,28.66
2019-04-22T13:29:07.236Z,28.76
2019-04-22T13:31:37.096Z,28.67
2019-04-22T13:34:25.477Z,28.79
2019-04-22T13:36:50.330Z,28.70
2019-04-22T13:39:22.759Z,28.70
2019-04-22T13:42:12.445Z,28.57
2019-04-22T13:44:31.453Z,28.75
2019-04-22T13:47:11.910Z,28.84
2019-04-22T13:50:08.245Z,28.90
2019-04-22T13:52:48.629Z,28.66
2019-04-22T13:55:16.229Z,28.62
2019-04-22T13:57:35.905Z,28.35
2019-04-22T13:59:57.591Z,28.28
2019-04-22T14:03:10.939Z,28.32
2019-04-22T14:05:46.657Z,28.10
2019-04-22T14:08:19.971Z,28.11
2019-04-22T14:10:48.440Z,27.87
2019-04-22T14:13:16.853Z,27.80
2019-04-22T14:15:46.746Z,27.81
2019-04-22T14:18:14.989Z,27.61
2019-04-22T14:20:44.976Z,27.64
2019-04-22T14:23:14.286Z,27.70
2019-04-22T14:25:42.990Z,27.73
2019-04-22T14:28:15.874Z,27.73
2019-04-22T14:30:39.521Z,27.74
2019-04-22T14:33:09.763Z,27.58
2019-04-22T14:35:38.117Z,27.46
2019-04-22T14:38:07.938Z,27.37
2019-04-22T14:40:36.657Z,27.36
2019-04-22T14:43:24.713Z,27.34
2019-04-22T14:46:06.999Z,27.42
2019-04-22T14:48:33.473Z,27.31
2019-04-22T14:50:51.675Z,27.13
2019-04-22T14:53:21.703Z,27.14
2019-04-22T14:55:32.498Z,27.14
2019-04-22T14:57:59.133Z,27.15
2019-04-22T15:00:26.709Z,27.25
2019-04-22T15:02:55.622Z,27.21
2019-04-22T15:05:26.002Z,27.15
2019-04-22T15:07:53.425Z,27.03
2019-04-22T15:10:22.408Z,27.06
2019-04-22T15:12:53.827Z,26.85
2019-04-22T15:15:48.027Z,26.91
2019-04-22T15:18:29.216Z,27.12
2019-04-22T15:21:02.599Z,27.03
2019-04-22T15:23:30.999Z,26.98
2019-04-22T15:25:59.143Z,27.14
2019-04-22T15:28:28.915Z,26.90
2019-04-22T15:30:57.458Z,26.97
2019-04-22T15:33:25.774Z,27.00
2019-04-22T15:35:55.534Z,26.99
2019-04-22T15:38:24.338Z,26.80
2019-04-22T15:40:52.554Z,26.85
2019-04-22T15:43:22.749Z,26.87
2019-04-22T15:45:50.869Z,26.88
2019-04-22T15:48:19.095Z,26.74
2019-04-22T15:50:48.746Z,26.77
2019-04-22T15:53:17.999Z,26.77
2019-04-22T15:55:47.115Z,26.79
2019-04-22T15:58:15.466Z,26.76
2019-04-22T16:00:54.069Z,26.72
2019-04-22T16:03:12.717Z,26.59
2019-04-22T16:05:41.863Z,26.39
2019-04-22T16:08:10.885Z,26.18
2019-04-22T16:10:39.849Z,26.00
2019-04-22T16:13:16.139Z,25.85
2019-04-22T16:15:38.350Z,25.71
2019-04-22T16:18:07.367Z,25.67
2019-04-22T16:20:36.353Z,25.70
2019-04-22T16:23:36.454Z,25.61
2019-04-22T16:26:30.485Z,25.50
2019-04-22T16:28:59.515Z,25.58
2019-04-22T16:31:27.135Z,25.45
2019-04-22T16:33:56.288Z,25.44
2019-04-22T16:36:24.923Z,25.45
2019-04-22T16:38:53.540Z,25.40
2019-04-22T16:41:22.444Z,25.17
2019-04-22T16:43:51.355Z,25.32
2019-04-22T16:46:21.352Z,25.28
2019-04-22T16:48:49.675Z,25.25
2019-04-22T16:51:18.080Z,25.37
2019-04-22T16:53:47.479Z,25.34
2019-04-22T16:56:17.051Z,25.34
2019-04-22T16:58:44.794Z,25.34
2019-04-22T17:01:43.132Z,25.33
2019-04-22T17:04:20.657Z,25.27
2019-04-22T17:06:48.127Z,25.10
2019-04-22T17:09:17.726Z,25.09
2019-04-22T17:11:45.919Z,25.14
2019-04-22T17:14:17.967Z,25.00
2019-04-22T17:16:44.297Z,24.94
2019-04-22T17:19:13.112Z,24.85
2019-04-22T17:21:41.530Z,24.78
2019-04-22T17:24:11.868Z,24.68
2019-04-22T17:26:39.304Z,24.50
2019-04-22T17:29:08.602Z,24.33
2019-04-22T17:31:40.844Z,24.20
2019-04-22T17:34:06.895Z,24.12
2019-04-22T17:36:36.231Z,24.03
2019-04-22T17:39:18.416Z,23.89
2019-04-22T17:41:56.414Z,23.81
2019-04-22T17:47:05.168Z,23.58
2019-04-22T17:50:08.265Z,23.46
2019-04-22T17:52:21.171Z,23.38
2019-04-22T17:54:48.852Z,23.30
2019-04-22T17:57:19.577Z,23.31
2019-04-22T17:59:44.762Z,23.11
2019-04-22T18:02:13.468Z,23.17
2019-04-22T18:04:23.364Z,23.05
2019-04-22T18:07:19.088Z,22.95
2019-04-22T18:10:10.974Z,22.85
2019-04-22T18:12:20.512Z,22.76
2019-04-22T18:17:11.380Z,22.69
2019-04-22T18:19:35.019Z,22.62
2019-04-22T18:22:00.839Z,22.54
2019-04-22T18:24:24.252Z,22.51
2019-04-22T18:27:17.048Z,22.33
2019-04-22T18:29:35.951Z,22.27
2019-04-22T18:31:53.705Z,22.16
2019-04-22T18:34:23.520Z,22.11
2019-04-22T18:36:55.190Z,22.04
2019-04-22T18:39:38.896Z,21.96
2019-04-22T18:41:51.811Z,21.96
2019-04-22T18:44:29.675Z,22.01
2019-04-22T18:46:52.440Z,21.86
2019-04-22T18:49:26.857Z,21.76
2019-04-22T18:52:18.397Z,21.66
2019-04-22T18:55:11.619Z,21.64
2019-04-22T18:57:48.000Z,21.61
2019-04-22T19:00:05.137Z,21.46
2019-04-22T19:02:36.747Z,21.39
2019-04-22T19:05:12.210Z,21.24
2019-04-22T19:07:59.162Z,21.15
2019-04-22T19:10:29.913Z,21.11
2019-04-22T19:13:15.359Z,21.00
2019-04-22T19:15:25.310Z,20.92
2019-04-22T19:17:55.223Z,20.85
2019-04-22T19:20:23.707Z,20.78
2019-04-22T19:22:51.548Z,20.77
2019-04-22T19:25:05.920Z,20.66
2019-04-22T19:27:43.386Z,20.65
2019-04-22T19:30:16.348Z,20.60
2019-04-22T19:32:46.413Z,20.54
2019-04-22T19:35:09.800Z,20.54
2019-04-22T19:37:33.106Z,20.49
2019-04-22T19:40:17.596Z,20.44
2019-04-22T19:42:43.172Z,20.37
2019-04-22T19:45:08.852Z,20.35
2019-04-22T19:47:38.203Z,20.35
2019-04-22T19:52:38.570Z,20.15
2019-04-22T19:55:01.144Z,20.24
2019-04-22T19:57:26.507Z,20.13
2019-04-22T19:59:55.860Z,20.09
2019-04-22T20:02:35.898Z,19.98
2019-04-22T20:05:26.678Z,20.10
2019-04-22T20:07:41.665Z,19.84
2019-04-22T20:10:22.104Z,19.80
2019-04-22T20:12:42.849Z,19.74
2019-04-22T20:15:15.633Z,19.63
2019-04-22T20:18:00.558Z,19.53
2019-04-22T20:20:17.560Z,19.52
2019-04-22T20:22:40.021Z,19.51
2019-04-22T20:24:56.256Z,19.42
2019-04-22T20:27:43.163Z,19.35
2019-04-22T20:30:14.347Z,19.29
2019-04-22T20:32:37.361Z,19.26
2019-04-22T20:35:09.266Z,19.24
2019-04-22T20:37:38.496Z,19.03
2019-04-22T20:40:05.418Z,19.04
2019-04-22T20:45:05.333Z,19.02
2019-04-22T20:47:29.381Z,18.88
2019-04-22T20:50:01.923Z,18.84
2019-04-22T20:52:33.843Z,18.79
2019-04-22T20:54:55.882Z,18.79
2019-04-22T20:57:31.986Z,18.75
2019-04-22T20:59:51.127Z,18.68
2019-04-22T21:02:17.918Z,18.70
2019-04-22T21:04:44.123Z,18.54
2019-04-22T21:07:13.769Z,18.56
2019-04-22T21:09:48.989Z,18.57
2019-04-22T21:12:14.914Z,18.57
2019-04-22T21:14:57.332Z,18.41
2019-04-22T21:17:24.709Z,18.43
2019-04-22T21:19:56.805Z,18.40
2019-04-22T21:22:24.428Z,18.36
2019-04-22T21:24:43.484Z,18.22
2019-04-22T21:27:20.949Z,18.23
2019-04-22T21:29:42.520Z,18.08
2019-04-22T21:32:13.589Z,18.10
2019-04-22T21:34:52.745Z,18.03
2019-04-22T21:37:34.683Z,18.06
2019-04-22T21:39:38.010Z,18.07
2019-04-22T21:42:12.629Z,17.99
2019-04-22T21:44:38.092Z,17.93
2019-04-22T21:47:20.668Z,17.86
2019-04-22T21:49:42.880Z,17.89
2019-04-22T21:52:08.102Z,17.84
2019-04-22T21:54:42.923Z,17.83
2019-04-22T21:59:44.400Z,17.86
2019-04-22T22:02:22.155Z,17.74
2019-04-22T22:04:44.488Z,17.75
2019-04-22T22:07:03.236Z,17.59
2019-04-22T22:09:42.942Z,17.52
2019-04-22T22:12:07.866Z,17.41
2019-04-22T22:14:39.697Z,17.41
2019-04-22T22:17:02.005Z,17.32
2019-04-22T22:19:39.662Z,17.38
2019-04-22T22:22:17.703Z,17.30
2019-04-22T22:24:38.625Z,17.24
2019-04-22T22:27:11.029Z,17.11
2019-04-22T22:30:05.552Z,17.15
2019-04-22T22:32:05.349Z,17.12
2019-04-22T22:34:34.786Z,17.15
2019-04-22T22:37:00.278Z,17.09
2019-04-22T22:39:24.880Z,17.10
2019-04-22T22:41:41.657Z,17.10
2019-04-22T22:44:18.350Z,17.02
2019-04-22T22:46:55.871Z,16.95
2019-04-22T22:49:29.891Z,16.88
2019-04-22T22:52:02.252Z,16.89
2019-04-22T22:54:30.058Z,16.91
2019-04-22T22:57:01.840Z,16.86
2019-04-22T22:59:23.723Z,16.77
2019-04-22T23:01:52.689Z,16.78
2019-04-22T23:04:23.800Z,16.76
2019-04-22T23:07:11.210Z,16.71
2019-04-22T23:09:21.192Z,16.74
2019-04-22T23:14:22.755Z,16.55
2019-04-22T23:16:33.690Z,16.55
2019-04-22T23:19:04.448Z,16.52
2019-04-22T23:21:38.798Z,16.47
2019-04-22T23:24:20.376Z,16.44
2019-04-22T23:26:59.852Z,16.43
2019-04-22T23:29:39.533Z,16.36
2019-04-22T23:32:16.983Z,16.29
2019-04-22T23:34:49.386Z,16.27
2019-04-22T23:37:21.748Z,16.32
2019-04-22T23:39:59.030Z,16.27
2019-04-22T23:42:27.242Z,16.18
2019-04-22T23:44:56.278Z,16.23
2019-04-22T23:47:31.176Z,16.14
2019-04-22T23:50:18.132Z,16.00
2019-04-22T23:52:52.963Z,16.00
2019-04-22T23:55:20.514Z,15.91
2019-04-22T23:57:50.552Z,15.86
